Amor Vincit — MBAA6 — position and weather

sailwx.info

Track history (hours):
 
Tides and Currents Weather Stations Pressure Air Temp Water Temp Dewpoint Dewpoint Depression Visibility Wind Speed Wind Dir Waves Ship Positions

Amor Vincit

Last reported at 2018-May-20 00:38 UTC. Time now 2018-Jun-20 05:33 UTC.
Position N 37°55' W 000°30'.
Warning: this ship's position is 31 days out of date.

Length 17 m.

Type: Sailing vessel. MMSI: 232007978.

Date/timePositionNaut miles runAvg speedWind from/ knotsBaromVisibWave heightAir tempDewpointWater temp
2018-May-20 00:38N 37°55' W 000°30'1 4.6
2018-May-20 00:30N 37°54' W 000°30'8 4.8
2018-May-19 22:46N 37°47' W 000°34'1 5.3
2018-May-19 22:30N 37°45' W 000°35'5 5.3
2018-May-19 21:35N 37°41' W 000°37'0 5.4
2018-May-19 21:30N 37°40' W 000°37'3 6.1
2018-May-19 20:58N 37°38' W 000°40'4 6.4
2018-May-19 20:18N 37°35' W 000°44'2 6.2
2018-May-19 19:55N 37°33' W 000°46'  
Track history (hours):
 
Tides and Currents Weather Stations Pressure Air Temp Water Temp Dewpoint Dewpoint Depression Visibility Wind Speed Wind Dir Waves Ship Positions

Amor Vincit

Last reported at 2018-May-20 00:38 UTC. Time now 2018-Jun-20 05:33 UTC.
Position N 37°55' W 000°30'.
Warning: this ship's position is 31 days out of date.

Length 17 m.

Type: Sailing vessel. MMSI: 232007978.

Date/timePositionNaut miles runAvg speedWind from/ knotsBaromVisibWave heightAir tempDewpointWater temp
2018-May-20 00:38N 37°55' W 000°30'1 4.6
2018-May-20 00:30N 37°54' W 000°30'8 4.8
2018-May-19 22:46N 37°47' W 000°34'1 5.3
2018-May-19 22:30N 37°45' W 000°35'5 5.3
2018-May-19 21:35N 37°41' W 000°37'0 5.4
2018-May-19 21:30N 37°40' W 000°37'3 6.1
2018-May-19 20:58N 37°38' W 000°40'4 6.4
2018-May-19 20:18N 37°35' W 000°44'2 6.2
2018-May-19 19:55N 37°33' W 000°46'  

Dump ship's entire track history